Chula Vista, California
Current Conditions -  °F | °C
As of 7:56 AM on Sunday 21 Dec 2014 (Local Time) from KNRS Reporting Station
Clear Clear  
Wind Chill: 56°   Ceiling: Unl
Heat Index: 56°   Visibility: NA
Dew Point: 51°   Wind: 6mph
Humidity: 84%   Direction: 90°E
Pressure: 30.14"   Gusts: NA
Location:  32.64°N, 117.08°W
Report Text: KNRS 211556Z AUTO 09005KT CLR 13/11 A3014 RMK AO2 SLP204 T01330106 $
Loading
Personal Weather Stations






























Interactive Weather Map New forecast layout! Learn more

10-Day Weather Forecast

Advertisements
Track Severe Weather on mobile